Have a Safe July 4th! 

Flight Track Log - Related Links

Times and Time Zones

All times are in EDT time to prevent confusion due to time zone crossing. See the FIN5 flight status page for this flight to view local times or setup timezone preferences in your user account.

Time Position Orientation Groundspeed Altitude Reporting Facility
EDT Latitude Longitude Course Direction KTS MPH feet Rate Location/Type
Sat 11:55:45 AM 61.2333 -52.7000 238° Southwest 500 575 38,000  Level Gander Center
Sat 11:57:43 AM 61.0833 -53.2000 238° Southwest 500 575 38,000  Level Gander Center
Sat 11:58:43 AM 61.0167 -53.4167 238° Southwest 500 575 38,000  Level Gander Center
Sat 11:59:43 AM 60.9500 -53.6833 243° Southwest 500 575 38,000  Level Gander Center
Sat 12:00:43 PM 60.8500 -53.9000 227° Southwest 500 575 38,000  Level Gander Center
Sat 12:01:00 PM 61.1062 -53.1045 238° Southwest  Level FlightAware Approximate
Sat 12:01:43 PM 60.7833 -54.1667 243° Southwest 500 575 38,000  Level Gander Center
Sat 12:02:43 PM 60.7167 -54.3833 238° Southwest 500 575 38,000  Level Gander Center
Sat 12:03:43 PM 60.6333 -54.6333 236° Southwest 500 575 38,000  Level Gander Center
Sat 12:05:43 PM 60.4833 -55.1000 237° Southwest 500 575 38,000  Level Gander Center
Sat 12:06:43 PM 60.4000 -55.3167 232° Southwest 500 575 38,000  Level Gander Center
Sat 12:07:43 PM 60.3333 -55.5667 242° Southwest 500 575 38,000  Level Gander Center
Sat 12:08:43 PM 60.2333 -55.7833 227° Southwest 500 575 38,000  Level Gander Center
Sat 12:09:43 PM 60.1667 -56.0333 242° Southwest 500 575 38,000  Level Gander Center
Sat 12:10:43 PM 60.1000 -56.2500 238° Southwest 510 587 38,000  Level Gander Center
Sat 12:11:43 PM 60.0167 -56.4833 235° Southwest 500 575 38,000  Level Gander Center
Sat 12:12:43 PM 59.9167 -56.7000 227° Southwest 500 575 38,000  Level Gander Center
Sat 12:13:43 PM 59.8167 -56.8500 217° Southwest 500 575 38,000  Level Gander Center
Sat 12:14:43 PM 59.6833 -57.0000 210° Southwest 500 575 38,000  Level Gander Center
Sat 12:15:43 PM 59.5667 -57.1333 210° Southwest 500 575 38,000  Level Gander Center
Sat 12:16:43 PM 59.4667 -57.2500 211° Southwest 500 575 38,000  Level Gander Center
Sat 12:17:43 PM 59.3333 -57.4000 210° Southwest 500 575 38,000  Level Gander Center
Sat 12:18:43 PM 59.2167 -57.5333 210° Southwest 500 575 38,000  Level Gander Center
Sat 12:19:43 PM 59.1000 -57.6833 213° Southwest 500 575 38,000  Level Gander Center
Sat 12:20:43 PM 58.9833 -57.8167 211° Southwest 500 575 38,000  Level Gander Center
Sat 12:21:43 PM 58.8667 -57.9333 207° Southwest 500 575 38,000  Level Gander Center
Sat 12:22:43 PM 58.7333 -58.0667 207° Southwest 500 575 38,000  Level Gander Center
Sat 12:23:43 PM 58.6167 -58.2167 214° Southwest 500 575 38,000  Level Gander Center
Sat 12:24:43 PM 58.4833 -58.3500 208° Southwest 500 575 38,000  Level Gander Center
Sat 12:25:43 PM 58.3667 -58.4833 211° Southwest 500 575 38,000  Level Gander Center
Sat 12:26:43 PM 58.2667 -58.5833 208° Southwest 500 575 38,000  Level Gander Center
Sat 12:27:43 PM 58.1333 -58.7333 211° Southwest 500 575 38,000  Level Gander Center
Sat 12:28:43 PM 58.0167 -58.8667 211° Southwest 500 575 38,000  Level Gander Center
Sat 12:29:43 PM 57.8833 -59.0000 208° Southwest 500 575 38,000  Level Gander Center
Sat 12:30:43 PM 57.7833 -59.1000 208° Southwest 500 575 38,000  Level Gander Center
Sat 12:31:43 PM 57.6500 -59.2333 208° Southwest 500 575 38,000  Level Gander Center
Sat 12:32:43 PM 57.5333 -59.3500 208° Southwest 500 575 38,000  Level Gander Center
Sat 12:33:43 PM 57.4000 -59.4833 208° Southwest 500 575 38,000  Level Gander Center
Sat 12:34:43 PM 57.3000 -59.5833 208° Southwest 500 575 38,000  Level Gander Center
Sat 12:35:43 PM 57.1667 -59.7167 208° Southwest 490 564 38,000  Level Gander Center
Sat 12:36:43 PM 57.0500 -59.8333 209° Southwest 490 564 38,000  Level Gander Center
Sat 12:37:43 PM 56.9333 -59.9667 212° Southwest 500 575 38,000  Level Gander Center
Sat 12:38:43 PM 56.8000 -60.1000 209° Southwest 490 564 38,000  Level Gander Center
Sat 12:39:45 PM 56.6667 -60.2167 206° Southwest 500 575 38,000  Level Gander Center
Sat 12:41:45 PM 56.4333 -60.4333 207° Southwest 500 575 38,000  Level Gander Center
Sat 12:42:45 PM 56.3000 -60.5667 209° Southwest 500 575 38,000  Level Gander Center
Sat 12:43:45 PM 56.1833 -60.6833 209° Southwest 490 564 38,000  Level Gander Center
Sat 12:44:45 PM 56.0500 -60.8000 206° Southwest 490 564 38,000  Level Gander Center
Sat 12:45:45 PM 55.9333 -60.9000 206° Southwest 500 575 38,000  Level Gander Center
Sat 12:46:45 PM 55.8167 -61.0167 209° Southwest 490 564 38,000  Level Gander Center
Sat 12:47:45 PM 55.7000 -61.1333 209° Southwest 490 564 38,000  Level Gander Center
Sat 12:48:45 PM 55.5833 -61.2167 202° Southwest 480 552 38,000  Level Gander Center
Sat 12:49:45 PM 55.4500 -61.3333 206° Southwest 490 564 38,000  Level Gander Center
Sat 12:50:45 PM 55.3500 -61.4667 217° Southwest 480 552 38,000  Level Gander Center
Sat 12:51:45 PM 55.2167 -61.5500 200° South 480 552 38,000  Level Gander Center
Sat 12:52:45 PM 55.1000 -61.6667 210° Southwest 490 564 38,000  Level Gander Center
Sat 12:53:45 PM 54.9833 -61.7833 210° Southwest 480 552 38,000  Level Gander Center
Sat 12:54:45 PM 54.8667 -61.8667 202° Southwest 480 552 38,000  Level Gander Center
Sat 12:55:45 PM 54.7333 -61.9833 207° Southwest 480 552 38,000  Level Gander Center
Sat 12:56:45 PM 54.6167 -62.0833 206° Southwest 480 552 38,000  Level Gander Center
Sat 12:57:45 PM 54.5000 -62.2000 210° Southwest 480 552 38,000  Level Gander Center
Sat 12:58:45 PM 54.3833 -62.2833 203° Southwest 480 552 38,000  Level Gander Center
Sat 12:59:45 PM 54.2667 -62.4000 210° Southwest 490 564 38,000  Level Gander Center
Sat 01:00:45 PM 54.1500 -62.5167 210° Southwest 490 564 38,000  Level Gander Center
Sat 01:01:45 PM 54.0167 -62.5833 196° South 490 564 38,000  Level Gander Center
Sat 01:02:45 PM 53.8833 -62.7000 207° Southwest 490 564 38,000  Level Gander Center
Sat 01:03:45 PM 53.7667 -62.7833 203° Southwest 490 564 38,000  Level Gander Center
Sat 01:04:45 PM 53.6500 -62.8833 207° Southwest 490 564 38,000 450 Level Gander Center
Sat 01:05:45 PM 53.5333 -63.0000 211° Southwest 490 564 38,900 850 Climbing Gander Center
Sat 01:06:45 PM 53.4000 -63.1000 204° Southwest 490 564 39,700 550 Climbing Gander Center
Sat 01:07:45 PM 53.2833 -63.1833 203° Southwest 490 564 40,000 150 Climbing Gander Center
Sat 01:08:45 PM 53.1500 -63.2833 204° Southwest 490 564 40,000  Level Gander Center
Sat 01:09:45 PM 53.0333 -63.4000 211° Southwest 490 564 40,000  Level Gander Center
Sat 01:10:45 PM 52.9000 -63.5000 204° Southwest 480 552 40,000  Level Gander Center
Sat 01:11:45 PM 52.7833 -63.5833 203° Southwest 480 552 40,000  Level Gander Center
Sat 01:12:45 PM 52.6667 -63.6833 207° Southwest 480 552 40,000  Level Gander Center
Sat 01:13:45 PM 52.5500 -63.7833 208° Southwest 480 552 40,000  Level Gander Center
Sat 01:14:45 PM 52.4333 -63.8667 204° Southwest 480 552 40,000  Level Gander Center
Sat 01:15:45 PM 52.3000 -63.9667 205° Southwest 480 552 40,000  Level Gander Center
Sat 01:16:45 PM 52.1833 -64.0333 199° South 470 541 40,000  Level Gander Center
Sat 01:17:45 PM 52.0500 -64.1333 205° Southwest 470 541 40,000  Level Gander Center
Sat 01:18:45 PM 51.9333 -64.2167 204° Southwest 480 552 40,000  Level Gander Center
Sat 01:19:45 PM 51.8167 -64.3167 208° Southwest 480 552 40,000  Level Gander Center
Sat 01:20:45 PM 51.7000 -64.3833 200° South 480 552 40,000  Level Gander Center
Sat 01:21:45 PM 51.5833 -64.4833 208° Southwest 480 552 40,000  Level Gander Center
Sat 01:22:45 PM 51.4667 -64.5833 208° Southwest 480 552 40,000  Level Gander Center
Sat 01:23:45 PM 51.3333 -64.6500 197° South 480 552 40,000  Level Gander Center
Sat 01:24:45 PM 51.2000 -64.7500 205° Southwest 480 552 40,000  Level Gander Center
Sat 01:25:45 PM 51.1000 -64.8500 212° Southwest 480 552 40,000  Level Gander Center
Sat 01:26:45 PM 50.9667 -64.9167 197° South 470 541 40,000  Level Gander Center
Sat 01:27:45 PM 50.8667 -65.0167 212° Southwest 470 541 40,000  Level Gander Center
Sat 01:28:45 PM 50.7333 -65.0833 198° South 470 541 40,000  Level Gander Center
Sat 01:29:45 PM 50.6167 -65.1833 209° Southwest 470 541 40,000  Level Gander Center
Sat 01:30:45 PM 50.5000 -65.2500 200° South 470 541 40,000  Level Gander Center
Sat 01:31:45 PM 50.3833 -65.3500 209° Southwest 470 541 40,000  Level Gander Center
Sat 01:32:45 PM 50.2667 -65.4500 209° Southwest 470 541 40,000  Level Gander Center
Sat 01:33:45 PM 50.1333 -65.5167 198° South 480 552 40,000  Level Gander Center
Sat 01:34:45 PM 50.0167 -65.6000 205° Southwest 470 541 40,000  Level Gander Center
Sat 01:35:45 PM 49.8833 -65.7000 206° Southwest 480 552 40,000  Level Gander Center
Sat 01:36:45 PM 49.7667 -65.7667 200° South 480 552 40,000  Level Gander Center
Sat 01:37:45 PM 49.6667 -65.8500 208° Southwest 470 541 40,000  Level Gander Center
Sat 01:38:45 PM 49.5167 -65.9167 196° South 480 552 40,000  Level Gander Center
Sat 01:39:45 PM 49.4000 -66.0167 209° Southwest 480 552 40,000  Level Gander Center
Sat 01:40:45 PM 49.2833 -66.1000 205° Southwest 480 552 40,000  Level Gander Center
Sat 01:41:45 PM 49.1667 -66.1667 200° South 480 552 40,000  Level Gander Center
Sat 01:42:45 PM 49.0333 -66.2500 202° Southwest 470 541 40,000  Level Gander Center
Sat 01:43:45 PM 48.9167 -66.3167 201° Southwest 470 541 40,000  Level Gander Center
Sat 01:44:45 PM 48.8000 -66.4167 209° Southwest 470 541 40,000  Level Gander Center
Sat 01:45:45 PM 48.6833 -66.4667 196° South 470 541 40,000  Level Gander Center
Sat 01:46:45 PM 48.5667 -66.5667 210° Southwest 470 541 40,000  Level Gander Center
Sat 01:47:45 PM 48.4333 -66.6500 203° Southwest 470 541 40,000  Level Gander Center
Sat 01:48:45 PM 48.3167 -66.7167 201° Southwest 480 552 40,000  Level Gander Center
Sat 01:49:45 PM 48.1833 -66.8000 203° Southwest 480 552 40,000  Level Gander Center
Sat 01:50:45 PM 48.0833 -66.8667 204° Southwest 480 552 40,000  Level Gander Center
Sat 01:51:45 PM 47.9333 -66.9500 200° South 480 552 40,000  Level Gander Center
Sat 01:52:45 PM 47.8167 -67.0333 206° Southwest 480 552 40,000  Level Gander Center
Sat 01:53:45 PM 47.7000 -67.1000 201° Southwest 480 552 40,000  Level Gander Center
Sat 01:54:45 PM 47.5667 -67.1833 203° Southwest 480 552 40,000  Level Gander Center
Sat 01:55:45 PM 47.4500 -67.2333 196° South 480 552 40,000  Level Gander Center
Sat 01:56:45 PM 47.3333 -67.3167 206° Southwest 480 552 40,000  Level Gander Center
Sat 01:57:33 PM 47.2614 -67.4019 219° Southwest 479 551 40,000  Level Boston Center
Sat 01:58:36 PM 47.1503 -67.5042 212° Southwest 474 545 40,000  Level Boston Center
Sat 02:04:07 PM 46.5108 -68.0713 209° Southwest 477 549 40,000  Level FlightAware ADS-B (KBGR)
Sat 02:04:37 PM 46.4570 -68.1153 210° Southwest 479 551 40,000  Level FlightAware ADS-B (KBGR)
Sat 02:05:35 PM 46.3454 -68.2068 210° Southwest 482 555 40,000  Level FlightAware ADS-B (KBGR)
Sat 02:06:07 PM 46.2789 -68.2616 210° Southwest 482 555 40,000  Level FlightAware ADS-B (KBGR)
Sat 02:06:52 PM 46.1972 -68.3285 210° Southwest 482 555 40,000  Level FlightAware ADS-B (KBGR)
Sat 02:07:22 PM 46.1554 -68.3627 210° Southwest 482 555 40,000  Level FlightAware ADS-B (KBGR)
Sat 02:07:52 PM 46.0802 -68.4240 210° Southwest 483 556 40,000  Level FlightAware ADS-B (KBGR)
Sat 02:08:22 PM 46.0181 -68.4745 210° Southwest 483 556 40,000  Level FlightAware ADS-B (KBGR)
Sat 02:08:52 PM 45.9603 -68.5213 209° Southwest 482 555 40,000  Level FlightAware ADS-B (KBGR)
Sat 02:09:23 PM 45.9060 -68.5653 209° Southwest 482 555 40,000  Level FlightAware ADS-B (KBGR)
Sat 02:10:07 PM 45.8134 -68.6399 209° Southwest 483 556 40,000  Level FlightAware ADS-B (KBGR)
Sat 02:10:38 PM 45.7546 -68.6872 209° Southwest 484 557 40,000  Level FlightAware ADS-B (KBGR)
Sat 02:11:08 PM 45.7000 -68.7309 209° Southwest 483 556 40,000  Level FlightAware ADS-B (KBGR)
Sat 02:11:38 PM 45.6361 -68.7820 209° Southwest 484 557 40,000  Level FlightAware ADS-B (KBGR)
Sat 02:12:22 PM 45.5549 -68.8467 209° Southwest 485 558 40,000  Level FlightAware ADS-B (KBGR)
Sat 02:12:53 PM 45.4964 -68.8931 209° Southwest 487 560 40,000  Level FlightAware ADS-B (KBGR)
Sat 02:13:37 PM 45.4037 -68.9665 209° Southwest 487 560 40,000  Level FlightAware ADS-B (KBGR)
Sat 02:14:08 PM 45.3629 -68.9988 209° Southwest 488 562 40,000  Level FlightAware ADS-B (KBGR)
Sat 02:14:39 PM 45.2810 -69.0633 209° Southwest 487 560 40,000  Level FlightAware ADS-B (EGUN / MHZ)
Sat 02:15:22 PM 45.1958 -69.1302 209° Southwest 489 563 40,000  Level FlightAware ADS-B (KBGR)
Sat 02:15:55 PM 45.1926 -69.1326 209° Southwest 490 564 40,000  Level FlightAware ADS-B (EGUN / MHZ)
Sat 02:17:13 PM 44.9833 -69.2961 209° Southwest 475 547 40,000  Level FlightAware ADS-B (WASR / MKW)
Sat 02:17:53 PM 44.9050 -69.3569 209° Southwest 475 547 40,000  Level FlightAware ADS-B (KBGR)
Sat 02:18:38 PM 44.8204 -69.4225 209° Southwest 475 547 40,000  Level FlightAware ADS-B (KBGR)
Sat 02:19:19 PM 44.7469 -69.4790 209° Southwest 475 547 40,000  Level FlightAware ADS-B (KBGR)
Sat 02:19:53 PM 44.7018 -69.5137 209° Southwest 476 548 40,000  Level FlightAware ADS-B (KBGR)
Sat 02:20:27 PM 44.6085 -69.5853 209° Southwest 475 547 40,000  Level FlightAware ADS-B (WASR / MKW)
Sat 02:21:07 PM 44.5314 -69.6442 209° Southwest 476 548 40,000  Level FlightAware ADS-B (KBGR)
Sat 02:21:37 PM 44.4842 -69.6802 209° Southwest 477 549 40,000  Level FlightAware ADS-B (KBGR)
Sat 02:22:20 PM 44.3874 -69.7539 209° Southwest 477 549 40,000  Level FlightAware ADS-B (KBGR)
Sat 02:22:51 PM 44.3274 -69.7994 209° Southwest 478 550 40,000  Level FlightAware ADS-B (KBGR)
Sat 02:23:23 PM 44.2943 -69.8245 208° Southwest 479 551 40,000  Level FlightAware ADS-B (KBGR)
Sat 02:23:53 PM 44.2068 -69.8906 208° Southwest 479 551 40,000  Level FlightAware ADS-B (KBGR)
Sat 02:24:29 PM 44.1385 -69.9418 208° Southwest 480 552 40,000  Level FlightAware ADS-B (EGUN / MHZ)
Sat 02:26:08 PM 43.9764 -70.0635 208° Southwest 482 555 40,000  Level FlightAware ADS-B (EGUN / MHZ)
Sat 02:26:31 PM 43.8999 -70.1188 207° Southwest 481 554 40,000  Level FlightAware ADS-B (EGUN / MHZ)
Sat 02:27:03 PM 43.8762 -70.1358 207° Southwest 482 555 40,000  Level FlightAware ADS-B (KBGR)
Sat 02:27:43 PM 43.8054 -70.1864 208° Southwest 483 556 40,000  Level FlightAware ADS-B (KBOS)
Sat 02:28:14 PM 43.6935 -70.2667 208° Southwest 475 547 40,000  Level FlightAware ADS-B (KASH)
Sat 02:28:54 PM 43.6147 -70.3230 207° Southwest 483 556 40,000  Level FlightAware ADS-B (KBOS)
Sat 02:29:29 PM 43.5449 -70.3729 208° Southwest 476 548 40,000  Level FlightAware ADS-B (KASH)
Sat 02:30:14 PM 43.4567 -70.4356 208° Southwest 477 549 40,000  Level FlightAware ADS-B (KASH)
Sat 02:30:45 PM 43.3962 -70.4785 207° Southwest 486 559 40,000  Level FlightAware ADS-B (KBOS)
Sat 02:31:24 PM 43.3606 -70.5036 207° Southwest 485 558 40,000  Level FlightAware ADS-B (KBOS)
Sat 02:31:57 PM 43.2549 -70.5783 207° Southwest 486 559 40,000  Level FlightAware ADS-B (KBOS)
Sat 02:32:27 PM 43.2097 -70.6101 207° Southwest 486 559 40,000  Level FlightAware ADS-B (KBOS)
Sat 02:33:02 PM 43.1299 -70.6662 207° Southwest 486 559 40,000  Level FlightAware ADS-B (KBOS)
Sat 02:33:43 PM 43.0382 -70.7304 207° Southwest 487 560 40,000  Level FlightAware ADS-B (KASH)
Sat 02:34:14 PM 42.9766 -70.7733 207° Southwest 487 560 40,000  Level FlightAware ADS-B (KASH)
Sat 02:34:44 PM 42.9177 -70.8144 207° Southwest 487 560 40,000  Level FlightAware ADS-B (KASH)
Sat 02:35:16 PM 42.8596 -70.8547 207° Southwest 487 560 40,000  Level FlightAware ADS-B (KBOS)
Sat 02:35:58 PM 42.7689 -70.9176 207° Southwest 488 562 40,000  Level FlightAware ADS-B (KBOS)
Sat 02:36:28 PM 42.7163 -70.9539 207° Southwest 488 562 40,000  Level FlightAware ADS-B (KBOS)
Sat 02:36:59 PM 42.6471 -71.0016 207° Southwest 488 562 40,000  Level FlightAware ADS-B (KBOS)
Sat 02:37:29 PM 42.5856 -71.0440 207° Southwest 488 562 40,000  Level FlightAware ADS-B (KASH)
Sat 02:38:00 PM 42.5240 -71.0863 207° Southwest 489 563 40,000  Level FlightAware ADS-B (KBOS)
Sat 02:38:30 PM 42.4663 -71.1258 207° Southwest 490 564 40,000  Level FlightAware ADS-B (KBOS)
Sat 02:39:00 PM 42.4025 -71.1694 207° Southwest 489 563 40,000  Level FlightAware ADS-B (KBOS)
Sat 02:39:40 PM 42.3279 -71.2203 207° Southwest 489 563 40,000  Level FlightAware ADS-B (KBOS)
Sat 02:40:16 PM 42.2604 -71.2661 207° Southwest 491 565 40,000 -975 Level FlightAware ADS-B (KBOS)
Sat 02:41:00 PM 42.1585 -71.3352 207° Southwest 490 564 38,700 -2,025 Descending FlightAware ADS-B (KASH)
Sat 02:41:36 PM 42.0845 -71.3852 207° Southwest 493 567 37,300 -2,320 Descending FlightAware ADS-B (KBOS)
Sat 02:42:15 PM 42.0058 -71.4385 207° Southwest 486 559 35,800 -2,314 Descending FlightAware ADS-B (KASH)
Sat 02:42:46 PM 41.9667 -71.4647 207° Southwest 484 557 34,600 -2,381 Descending FlightAware ADS-B (KBOS)
Sat 02:43:18 PM 41.8838 -71.5202 207° Southwest 480 552 33,300 -2,291 Descending FlightAware ADS-B (KSNC)
Sat 02:43:41 PM 41.8391 -71.5502 207° Southwest 473 544 32,500 -1,607 Descending FlightAware ADS-B (KOWD)
Sat 02:44:14 PM 41.8481 -71.5442 206° Southwest 472 543 31,800 -1,612 Descending FlightAware ADS-B (KSNC)
Sat 02:44:48 PM 41.7163 -71.6322 207° Southwest 453 521 30,700 -1,886 Descending FlightAware ADS-B (KSNC)
Sat 02:45:24 PM 41.6407 -71.6825 207° Southwest 446 513 29,600 -1,853 Descending FlightAware ADS-B (KSNC)
Sat 02:45:56 PM 41.5806 -71.7224 207° Southwest 434 499 28,600 -1,808 Descending FlightAware ADS-B (KASH)
Sat 02:46:37 PM 41.5063 -71.7715 206° Southwest 432 497 27,400 -1,778 Descending FlightAware ADS-B (KSNC)
Sat 02:47:17 PM 41.4355 -71.8183 206° Southwest 428 493 26,200 -1,800 Descending FlightAware ADS-B (KSNC)
Sat 02:47:47 PM 41.3812 -71.8541 206° Southwest 428 493 25,300 -1,440 Descending FlightAware ADS-B (KSNC)
Sat 02:48:32 PM 41.3121 -71.9185 228° Southwest 407 468 24,400 -1,379 Descending FlightAware ADS-B (KSNC)
Sat 02:49:14 PM 41.2671 -71.9980 234° Southwest 398 458 23,300 -1,680 Descending FlightAware ADS-B (KSNC)
Sat 02:49:47 PM 41.2288 -72.0669 234° Southwest 395 455 22,300 -1,250 Descending FlightAware ADS-B (KSNC)
Sat 02:50:26 PM 41.1942 -72.1293 234° Southwest 377 434 21,800 -917 Descending FlightAware ADS-B (KSNC)
Sat 02:50:59 PM 41.1538 -72.2021 234° Southwest 367 422 21,200 -1,167 Descending FlightAware ADS-B (KSNC)
Sat 02:51:38 PM 41.1149 -72.2719 234° Southwest 362 417 20,400 -1,268 Descending FlightAware ADS-B (KSNC)
Sat 02:52:10 PM 41.0947 -72.3079 234° Southwest 357 411 19,700 -1,373 Descending FlightAware ADS-B (KSNC)
Sat 02:53:01 PM 41.0352 -72.4143 234° Southwest 350 403 18,500 -1,467 Descending FlightAware ADS-B (KSNC)
Sat 02:53:40 PM 40.9984 -72.4801 233° Southwest 347 399 17,500 -1,500 Descending FlightAware ADS-B (KSNC)
Sat 02:54:13 PM 40.9664 -72.5371 233° Southwest 344 396 16,700 -1,562 Descending FlightAware ADS-B (KSNC)
Sat 02:54:53 PM 40.9273 -72.6065 233° Southwest 340 391 15,600 -1,352 Descending FlightAware ADS-B (KSNC)
Sat 02:55:24 PM 40.8985 -72.6575 233° Southwest 328 377 15,100 -917 Descending FlightAware ADS-B (KSNC)
Sat 02:56:05 PM 40.8617 -72.7227 234° Southwest 312 359 14,500 -1,014 Descending FlightAware ADS-B (KSNC)
Sat 02:56:35 PM 40.8366 -72.7671 233° Southwest 306 352 13,900 -1,300 Descending FlightAware ADS-B (KSNC)
Sat 02:57:05 PM 40.8116 -72.8110 233° Southwest 303 349 13,200 -1,421 Descending FlightAware ADS-B (KSNC)
Sat 02:57:51 PM 40.7739 -72.8804 235° Southwest 301 346 12,100 -1,500 Descending FlightAware ADS-B (KSNC)
Sat 02:58:21 PM 40.7506 -72.9241 235° Southwest 293 337 11,300 -1,971 Descending FlightAware ADS-B (KSNC)
Sat 02:59:01 PM 40.7260 -72.9716 236° Southwest 290 334 9,800 -2,000 Descending FlightAware ADS-B (KSNC)
Sat 02:59:21 PM 40.7056 -73.0102 235° Southwest 291 335 9,300 -1,364 Descending FlightAware ADS-B (KSNC)
Sat 02:59:45 PM 40.6883 -73.0428 235° Southwest 285 328 8,800 -1,256 Descending FlightAware ADS-B (KSNC)
Sat 03:00:04 PM 40.6731 -73.0715 235° Southwest 281 323 8,400 -1,154 Descending FlightAware ADS-B (KSNC)
Sat 03:00:37 PM 40.6469 -73.1196 234° Southwest 278 320 7,800 -1,347 Descending FlightAware ADS-B (KSNC)
Sat 03:00:53 PM 40.6387 -73.1346 242° Southwest 273 314 7,300 -1,448 Descending FlightAware ADS-B (KSNC)
Sat 03:01:06 PM 40.6309 -73.1619 264° West 268 308 7,100 -1,043 Descending FlightAware ADS-B (KSNC)
Sat 03:01:16 PM 40.6308 -73.1709 283° West 266 306 6,900 -1,263 Descending FlightAware ADS-B (KSNC)
Sat 03:01:25 PM 40.6363 -73.1926 299° West 266 306 6,700 -1,304 Descending FlightAware ADS-B (KSNC)
Sat 03:02:02 PM 40.6446 -73.2083 308° West 262 302 5,900 -1,179 Descending FlightAware ADS-B (KSNC)
Sat 03:02:21 PM 40.6774 -73.2641 308° West 262 302 5,600 -918 Descending FlightAware ADS-B (KSNC)
Sat 03:03:27 PM 40.7235 -73.3414 308° West 237 273 4,600 -795 Descending FlightAware ADS-B (KSNC)
Sat 03:03:44 PM 40.7358 -73.3618 309° West 228 262 4,500 -900 Descending FlightAware ADS-B (KSNC)
Sat 03:04:27 PM 40.7627 -73.4059 309° West 225 259 3,700 -774 Descending FlightAware ADS-B (KSNC)
Sat 03:04:46 PM 40.7764 -73.4283 309° West 224 258 3,700 367 Level FlightAware ADS-B (KSNC)
Sat 03:05:16 PM 40.7875 -73.4467 309° West 233 268 4,000 -235 Climbing Boston Center
Sat 03:06:28 PM 40.7833 -73.5333 266° West 186 214 3,300 -545 Descending New York TRACON
Sat 03:07:28 PM 40.7667 -73.6000 252° West 173 199 2,800 -600 Descending New York TRACON
Sat 03:08:28 PM 40.7500 -73.6500 246° West 168 193 2,100 -500 Descending New York TRACON
Sat 03:09:28 PM 40.7167 -73.6833 217° Southwest 163 188 1,800 -550 Descending New York TRACON
Sat 03:10:28 PM 40.6833 -73.7167 217° Southwest 140 161 1,000 -800 Descending New York TRACON
Sat 03:13:00 PM 40.6333 -73.7667 North  Level FlightAware Approximate
Sat 03:20:00 PM 40.6398 -73.7789 North  Level Estimated

Login

Don't have an account? Register now (free) for customized features, flight alerts, and more!